sensor_id;sensor_type;location;lat;lon;timestamp;P1;durP1;ratioP1;P2;durP2;ratioP2
8213;SDS011;4148;47.974;7.824;2022-09-21T00:01:24;3.30;;;2.10;;
8213;SDS011;4148;47.974;7.824;2022-09-21T00:03:54;2.80;;;2.20;;
8213;SDS011;4148;47.974;7.824;2022-09-21T00:06:24;2.70;;;1.90;;
8213;SDS011;4148;47.974;7.824;2022-09-21T00:08:54;4.07;;;2.40;;
8213;SDS011;4148;47.974;7.824;2022-09-21T00:11:23;3.40;;;2.33;;
8213;SDS011;4148;47.974;7.824;2022-09-21T00:13:52;3.00;;;2.40;;
8213;SDS011;4148;47.974;7.824;2022-09-21T00:16:20;6.97;;;2.20;;
8213;SDS011;4148;47.974;7.824;2022-09-21T00:18:50;2.97;;;2.20;;
8213;SDS011;4148;47.974;7.824;2022-09-21T00:21:18;2.90;;;2.07;;
8213;SDS011;4148;47.974;7.824;2022-09-21T00:23:47;3.90;;;1.83;;
8213;SDS011;4148;47.974;7.824;2022-09-21T00:26:15;3.77;;;2.00;;
8213;SDS011;4148;47.974;7.824;2022-09-21T00:28:45;3.13;;;1.90;;
8213;SDS011;4148;47.974;7.824;2022-09-21T00:31:14;2.30;;;2.00;;
8213;SDS011;4148;47.974;7.824;2022-09-21T00:33:43;3.23;;;1.90;;
8213;SDS011;4148;47.974;7.824;2022-09-21T00:36:13;3.67;;;2.60;;
8213;SDS011;4148;47.974;7.824;2022-09-21T00:38:42;3.90;;;2.03;;
8213;SDS011;4148;47.974;7.824;2022-09-21T00:41:11;2.77;;;2.40;;
8213;SDS011;4148;47.974;7.824;2022-09-21T00:43:41;3.00;;;1.70;;
8213;SDS011;4148;47.974;7.824;2022-09-21T00:46:12;3.47;;;2.27;;
8213;SDS011;4148;47.974;7.824;2022-09-21T00:48:53;4.70;;;2.03;;
8213;SDS011;4148;47.974;7.824;2022-09-21T00:51:23;3.73;;;2.50;;
8213;SDS011;4148;47.974;7.824;2022-09-21T00:53:53;2.60;;;1.70;;
8213;SDS011;4148;47.974;7.824;2022-09-21T00:56:25;2.27;;;1.80;;
8213;SDS011;4148;47.974;7.824;2022-09-21T00:58:54;2.30;;;1.80;;
8213;SDS011;4148;47.974;7.824;2022-09-21T01:01:22;2.77;;;1.80;;
8213;SDS011;4148;47.974;7.824;2022-09-21T01:03:50;5.00;;;2.27;;
8213;SDS011;4148;47.974;7.824;2022-09-21T01:06:23;2.80;;;2.03;;
8213;SDS011;4148;47.974;7.824;2022-09-21T01:08:52;2.23;;;1.90;;
8213;SDS011;4148;47.974;7.824;2022-09-21T01:11:26;5.00;;;1.77;;
8213;SDS011;4148;47.974;7.824;2022-09-21T01:14:11;5.80;;;1.93;;
8213;SDS011;4148;47.974;7.824;2022-09-21T01:16:49;2.13;;;1.67;;
8213;SDS011;4148;47.974;7.824;2022-09-21T01:19:46;3.80;;;2.00;;
8213;SDS011;4148;47.974;7.824;2022-09-21T01:22:35;4.33;;;2.10;;
8213;SDS011;4148;47.974;7.824;2022-09-21T01:25:18;3.53;;;1.90;;
8213;SDS011;4148;47.974;7.824;2022-09-21T01:28:05;3.57;;;1.90;;
8213;SDS011;4148;47.974;7.824;2022-09-21T01:30:42;7.77;;;2.17;;
8213;SDS011;4148;47.974;7.824;2022-09-21T01:33:15;5.63;;;2.33;;
8213;SDS011;4148;47.974;7.824;2022-09-21T01:35:48;2.70;;;1.87;;
8213;SDS011;4148;47.974;7.824;2022-09-21T01:38:20;2.60;;;1.90;;
8213;SDS011;4148;47.974;7.824;2022-09-21T01:40:53;6.80;;;2.03;;
8213;SDS011;4148;47.974;7.824;2022-09-21T01:43:26;2.23;;;1.83;;
8213;SDS011;4148;47.974;7.824;2022-09-21T01:45:59;6.40;;;2.57;;
8213;SDS011;4148;47.974;7.824;2022-09-21T01:48:29;3.10;;;1.80;;
8213;SDS011;4148;47.974;7.824;2022-09-21T01:51:03;2.90;;;2.00;;
8213;SDS011;4148;47.974;7.824;2022-09-21T01:53:35;4.07;;;2.07;;
8213;SDS011;4148;47.974;7.824;2022-09-21T01:56:08;2.83;;;1.90;;
8213;SDS011;4148;47.974;7.824;2022-09-21T01:58:40;4.13;;;2.13;;
8213;SDS011;4148;47.974;7.824;2022-09-21T02:01:13;2.83;;;1.77;;
8213;SDS011;4148;47.974;7.824;2022-09-21T02:03:45;4.10;;;2.03;;
8213;SDS011;4148;47.974;7.824;2022-09-21T02:06:15;3.30;;;1.93;;
8213;SDS011;4148;47.974;7.824;2022-09-21T02:08:45;2.73;;;1.80;;
8213;SDS011;4148;47.974;7.824;2022-09-21T02:11:13;3.37;;;2.03;;
8213;SDS011;4148;47.974;7.824;2022-09-21T02:13:41;2.60;;;2.10;;
8213;SDS011;4148;47.974;7.824;2022-09-21T02:16:26;4.73;;;2.23;;
8213;SDS011;4148;47.974;7.824;2022-09-21T02:19:08;4.40;;;2.47;;
8213;SDS011;4148;47.974;7.824;2022-09-21T02:21:41;3.27;;;2.60;;
8213;SDS011;4148;47.974;7.824;2022-09-21T02:24:20;3.40;;;1.77;;
8213;SDS011;4148;47.974;7.824;2022-09-21T02:26:57;5.20;;;2.17;;
8213;SDS011;4148;47.974;7.824;2022-09-21T02:29:32;3.37;;;1.97;;
8213;SDS011;4148;47.974;7.824;2022-09-21T02:32:11;4.47;;;2.10;;
8213;SDS011;4148;47.974;7.824;2022-09-21T02:34:49;3.53;;;1.90;;
8213;SDS011;4148;47.974;7.824;2022-09-21T02:37:20;3.30;;;2.20;;
8213;SDS011;4148;47.974;7.824;2022-09-21T02:39:57;3.13;;;2.10;;
8213;SDS011;4148;47.974;7.824;2022-09-21T02:42:30;3.33;;;2.30;;
8213;SDS011;4148;47.974;7.824;2022-09-21T02:45:03;4.20;;;2.20;;
8213;SDS011;4148;47.974;7.824;2022-09-21T02:47:37;3.10;;;2.13;;
8213;SDS011;4148;47.974;7.824;2022-09-21T02:50:10;2.33;;;2.10;;
8213;SDS011;4148;47.974;7.824;2022-09-21T02:52:43;2.20;;;1.77;;
8213;SDS011;4148;47.974;7.824;2022-09-21T02:55:11;6.43;;;2.30;;
8213;SDS011;4148;47.974;7.824;2022-09-21T02:57:41;2.37;;;2.00;;
8213;SDS011;4148;47.974;7.824;2022-09-21T03:00:09;2.40;;;1.90;;
8213;SDS011;4148;47.974;7.824;2022-09-21T03:02:40;2.37;;;2.00;;
8213;SDS011;4148;47.974;7.824;2022-09-21T03:05:09;3.60;;;2.07;;
8213;SDS011;4148;47.974;7.824;2022-09-21T03:07:39;4.93;;;2.40;;
8213;SDS011;4148;47.974;7.824;2022-09-21T03:10:07;4.37;;;2.17;;
8213;SDS011;4148;47.974;7.824;2022-09-21T03:12:35;4.50;;;2.47;;
8213;SDS011;4148;47.974;7.824;2022-09-21T03:15:03;4.73;;;2.10;;
8213;SDS011;4148;47.974;7.824;2022-09-21T03:17:32;3.90;;;2.20;;
8213;SDS011;4148;47.974;7.824;2022-09-21T03:20:01;3.10;;;2.10;;
8213;SDS011;4148;47.974;7.824;2022-09-21T03:22:29;3.30;;;2.10;;
8213;SDS011;4148;47.974;7.824;2022-09-21T03:24:57;2.33;;;2.07;;
8213;SDS011;4148;47.974;7.824;2022-09-21T03:27:25;4.10;;;2.20;;
8213;SDS011;4148;47.974;7.824;2022-09-21T03:29:53;2.87;;;1.90;;
8213;SDS011;4148;47.974;7.824;2022-09-21T03:32:27;4.33;;;2.40;;
8213;SDS011;4148;47.974;7.824;2022-09-21T03:34:54;2.50;;;2.17;;
8213;SDS011;4148;47.974;7.824;2022-09-21T03:37:23;3.70;;;2.30;;
8213;SDS011;4148;47.974;7.824;2022-09-21T03:39:51;5.10;;;2.60;;
8213;SDS011;4148;47.974;7.824;2022-09-21T03:42:19;3.50;;;2.30;;
8213;SDS011;4148;47.974;7.824;2022-09-21T03:44:47;4.30;;;2.17;;
8213;SDS011;4148;47.974;7.824;2022-09-21T03:47:15;3.60;;;2.27;;
8213;SDS011;4148;47.974;7.824;2022-09-21T03:49:42;3.37;;;1.83;;
8213;SDS011;4148;47.974;7.824;2022-09-21T03:52:10;4.37;;;2.23;;
8213;SDS011;4148;47.974;7.824;2022-09-21T03:54:39;2.87;;;2.10;;
8213;SDS011;4148;47.974;7.824;2022-09-21T03:57:07;3.30;;;2.17;;
8213;SDS011;4148;47.974;7.824;2022-09-21T03:59:35;3.10;;;2.20;;
8213;SDS011;4148;47.974;7.824;2022-09-21T04:02:02;4.43;;;2.70;;
8213;SDS011;4148;47.974;7.824;2022-09-21T04:04:30;3.70;;;2.13;;
8213;SDS011;4148;47.974;7.824;2022-09-21T04:06:58;3.20;;;2.13;;
8213;SDS011;4148;47.974;7.824;2022-09-21T04:09:26;3.60;;;2.03;;
8213;SDS011;4148;47.974;7.824;2022-09-21T04:11:55;5.20;;;2.40;;
8213;SDS011;4148;47.974;7.824;2022-09-21T04:14:23;3.20;;;2.10;;
8213;SDS011;4148;47.974;7.824;2022-09-21T04:16:51;3.70;;;2.07;;
8213;SDS011;4148;47.974;7.824;2022-09-21T04:19:19;3.60;;;2.20;;
8213;SDS011;4148;47.974;7.824;2022-09-21T04:21:47;2.80;;;2.10;;
8213;SDS011;4148;47.974;7.824;2022-09-21T04:24:16;2.63;;;2.00;;
8213;SDS011;4148;47.974;7.824;2022-09-21T04:26:44;5.70;;;2.50;;
8213;SDS011;4148;47.974;7.824;2022-09-21T04:29:14;4.43;;;2.43;;
8213;SDS011;4148;47.974;7.824;2022-09-21T04:31:42;3.90;;;2.20;;
8213;SDS011;4148;47.974;7.824;2022-09-21T04:34:11;2.87;;;2.13;;
8213;SDS011;4148;47.974;7.824;2022-09-21T04:36:40;5.17;;;2.23;;
8213;SDS011;4148;47.974;7.824;2022-09-21T04:39:08;2.10;;;1.90;;
8213;SDS011;4148;47.974;7.824;2022-09-21T04:41:36;3.33;;;2.83;;
8213;SDS011;4148;47.974;7.824;2022-09-21T04:44:04;4.00;;;2.50;;
8213;SDS011;4148;47.974;7.824;2022-09-21T04:46:33;5.23;;;2.80;;
8213;SDS011;4148;47.974;7.824;2022-09-21T04:49:01;3.30;;;2.70;;
8213;SDS011;4148;47.974;7.824;2022-09-21T04:51:29;2.73;;;2.43;;
8213;SDS011;4148;47.974;7.824;2022-09-21T04:53:56;4.77;;;2.30;;
8213;SDS011;4148;47.974;7.824;2022-09-21T04:56:24;5.17;;;3.17;;
8213;SDS011;4148;47.974;7.824;2022-09-21T04:58:52;5.10;;;3.20;;
8213;SDS011;4148;47.974;7.824;2022-09-21T05:01:20;3.50;;;2.53;;
8213;SDS011;4148;47.974;7.824;2022-09-21T05:03:49;4.50;;;2.87;;
8213;SDS011;4148;47.974;7.824;2022-09-21T05:06:17;3.37;;;2.53;;
8213;SDS011;4148;47.974;7.824;2022-09-21T05:08:45;4.50;;;2.80;;
8213;SDS011;4148;47.974;7.824;2022-09-21T05:11:30;5.73;;;2.30;;
8213;SDS011;4148;47.974;7.824;2022-09-21T05:13:58;3.17;;;2.83;;
8213;SDS011;4148;47.974;7.824;2022-09-21T05:16:26;5.97;;;3.10;;
8213;SDS011;4148;47.974;7.824;2022-09-21T05:18:55;5.00;;;2.90;;
8213;SDS011;4148;47.974;7.824;2022-09-21T05:21:23;6.60;;;3.17;;
8213;SDS011;4148;47.974;7.824;2022-09-21T05:23:51;4.17;;;3.30;;
8213;SDS011;4148;47.974;7.824;2022-09-21T05:26:19;6.20;;;3.10;;
8213;SDS011;4148;47.974;7.824;2022-09-21T05:28:47;6.27;;;3.17;;
8213;SDS011;4148;47.974;7.824;2022-09-21T05:31:24;4.20;;;2.87;;
8213;SDS011;4148;47.974;7.824;2022-09-21T05:34:02;4.40;;;2.50;;
8213;SDS011;4148;47.974;7.824;2022-09-21T05:36:37;5.30;;;3.30;;
8213;SDS011;4148;47.974;7.824;2022-09-21T05:39:11;6.40;;;3.10;;
8213;SDS011;4148;47.974;7.824;2022-09-21T05:41:40;5.00;;;3.30;;
8213;SDS011;4148;47.974;7.824;2022-09-21T05:44:09;8.80;;;3.30;;
8213;SDS011;4148;47.974;7.824;2022-09-21T05:46:40;4.90;;;3.30;;
8213;SDS011;4148;47.974;7.824;2022-09-21T05:49:14;5.87;;;3.50;;
8213;SDS011;4148;47.974;7.824;2022-09-21T05:51:48;5.07;;;3.23;;
8213;SDS011;4148;47.974;7.824;2022-09-21T05:54:26;4.17;;;3.20;;
8213;SDS011;4148;47.974;7.824;2022-09-21T05:57:04;9.03;;;3.40;;
8213;SDS011;4148;47.974;7.824;2022-09-21T05:59:42;5.53;;;3.70;;
8213;SDS011;4148;47.974;7.824;2022-09-21T06:02:25;5.30;;;3.70;;
8213;SDS011;4148;47.974;7.824;2022-09-21T06:05:11;6.77;;;3.60;;
8213;SDS011;4148;47.974;7.824;2022-09-21T06:07:40;4.17;;;3.13;;
8213;SDS011;4148;47.974;7.824;2022-09-21T06:10:09;8.70;;;4.30;;
8213;SDS011;4148;47.974;7.824;2022-09-21T06:12:38;5.80;;;4.07;;
8213;SDS011;4148;47.974;7.824;2022-09-21T06:15:07;5.80;;;4.17;;
8213;SDS011;4148;47.974;7.824;2022-09-21T06:17:38;6.13;;;3.30;;
8213;SDS011;4148;47.974;7.824;2022-09-21T06:20:06;5.87;;;3.70;;
8213;SDS011;4148;47.974;7.824;2022-09-21T06:22:36;4.40;;;3.10;;
8213;SDS011;4148;47.974;7.824;2022-09-21T06:25:05;8.93;;;3.70;;
8213;SDS011;4148;47.974;7.824;2022-09-21T06:27:33;5.30;;;3.67;;
8213;SDS011;4148;47.974;7.824;2022-09-21T06:30:01;4.20;;;3.10;;
8213;SDS011;4148;47.974;7.824;2022-09-21T06:32:29;5.80;;;3.70;;
8213;SDS011;4148;47.974;7.824;2022-09-21T06:34:57;5.93;;;3.40;;
8213;SDS011;4148;47.974;7.824;2022-09-21T06:37:25;5.57;;;3.27;;
8213;SDS011;4148;47.974;7.824;2022-09-21T06:39:54;4.73;;;3.23;;
8213;SDS011;4148;47.974;7.824;2022-09-21T06:42:22;7.27;;;3.27;;
8213;SDS011;4148;47.974;7.824;2022-09-21T06:44:49;5.97;;;3.83;;
8213;SDS011;4148;47.974;7.824;2022-09-21T06:47:17;5.43;;;3.33;;
8213;SDS011;4148;47.974;7.824;2022-09-21T06:49:45;4.77;;;3.23;;
8213;SDS011;4148;47.974;7.824;2022-09-21T06:52:13;8.60;;;3.43;;
8213;SDS011;4148;47.974;7.824;2022-09-21T06:54:40;10.10;;;3.70;;
8213;SDS011;4148;47.974;7.824;2022-09-21T06:57:10;4.30;;;3.70;;
8213;SDS011;4148;47.974;7.824;2022-09-21T06:59:37;5.10;;;3.50;;
8213;SDS011;4148;47.974;7.824;2022-09-21T07:02:07;5.60;;;4.33;;
8213;SDS011;4148;47.974;7.824;2022-09-21T07:04:35;5.70;;;3.37;;
8213;SDS011;4148;47.974;7.824;2022-09-21T07:07:03;4.33;;;3.50;;
8213;SDS011;4148;47.974;7.824;2022-09-21T07:09:31;5.53;;;3.80;;
8213;SDS011;4148;47.974;7.824;2022-09-21T07:12:20;4.47;;;3.50;;
8213;SDS011;4148;47.974;7.824;2022-09-21T07:14:48;4.77;;;3.37;;
8213;SDS011;4148;47.974;7.824;2022-09-21T07:17:16;12.93;;;4.00;;
8213;SDS011;4148;47.974;7.824;2022-09-21T07:19:44;5.10;;;3.97;;
8213;SDS011;4148;47.974;7.824;2022-09-21T07:22:12;7.90;;;4.00;;
8213;SDS011;4148;47.974;7.824;2022-09-21T07:24:40;5.57;;;3.97;;
8213;SDS011;4148;47.974;7.824;2022-09-21T07:27:08;5.63;;;4.10;;
8213;SDS011;4148;47.974;7.824;2022-09-21T07:29:37;7.30;;;4.17;;
8213;SDS011;4148;47.974;7.824;2022-09-21T07:32:05;7.03;;;4.37;;
8213;SDS011;4148;47.974;7.824;2022-09-21T07:34:33;5.23;;;3.87;;
8213;SDS011;4148;47.974;7.824;2022-09-21T07:37:02;7.07;;;4.57;;
8213;SDS011;4148;47.974;7.824;2022-09-21T07:39:30;7.33;;;4.37;;
8213;SDS011;4148;47.974;7.824;2022-09-21T07:41:57;10.97;;;5.27;;
8213;SDS011;4148;47.974;7.824;2022-09-21T07:44:25;6.70;;;4.17;;
8213;SDS011;4148;47.974;7.824;2022-09-21T07:46:54;20.03;;;5.17;;
8213;SDS011;4148;47.974;7.824;2022-09-21T07:49:22;6.53;;;4.70;;
8213;SDS011;4148;47.974;7.824;2022-09-21T07:51:50;7.17;;;4.43;;
8213;SDS011;4148;47.974;7.824;2022-09-21T07:54:19;8.87;;;4.60;;
8213;SDS011;4148;47.974;7.824;2022-09-21T07:56:46;9.30;;;4.60;;
8213;SDS011;4148;47.974;7.824;2022-09-21T07:59:35;6.20;;;4.50;;
8213;SDS011;4148;47.974;7.824;2022-09-21T08:02:03;6.40;;;4.30;;
8213;SDS011;4148;47.974;7.824;2022-09-21T08:04:31;7.50;;;4.23;;
8213;SDS011;4148;47.974;7.824;2022-09-21T08:06:59;7.03;;;3.90;;
8213;SDS011;4148;47.974;7.824;2022-09-21T08:09:27;10.23;;;4.60;;
8213;SDS011;4148;47.974;7.824;2022-09-21T08:11:54;9.53;;;4.33;;
8213;SDS011;4148;47.974;7.824;2022-09-21T08:14:24;7.03;;;4.80;;
8213;SDS011;4148;47.974;7.824;2022-09-21T08:16:52;5.93;;;3.87;;
8213;SDS011;4148;47.974;7.824;2022-09-21T08:19:21;6.33;;;4.90;;
8213;SDS011;4148;47.974;7.824;2022-09-21T08:21:50;6.07;;;4.53;;
8213;SDS011;4148;47.974;7.824;2022-09-21T08:24:23;7.53;;;4.43;;
8213;SDS011;4148;47.974;7.824;2022-09-21T08:26:52;9.30;;;4.50;;
8213;SDS011;4148;47.974;7.824;2022-09-21T08:29:21;5.40;;;3.70;;
8213;SDS011;4148;47.974;7.824;2022-09-21T08:31:49;5.93;;;4.60;;
8213;SDS011;4148;47.974;7.824;2022-09-21T08:34:18;4.90;;;4.40;;
8213;SDS011;4148;47.974;7.824;2022-09-21T08:36:47;6.60;;;4.37;;
8213;SDS011;4148;47.974;7.824;2022-09-21T08:39:20;5.77;;;5.00;;
8213;SDS011;4148;47.974;7.824;2022-09-21T08:45:00;7.80;;;4.73;;
8213;SDS011;4148;47.974;7.824;2022-09-21T08:47:33;6.43;;;4.83;;
8213;SDS011;4148;47.974;7.824;2022-09-21T08:50:04;6.93;;;4.80;;
8213;SDS011;4148;47.974;7.824;2022-09-21T08:52:50;11.30;;;5.10;;
8213;SDS011;4148;47.974;7.824;2022-09-21T08:55:21;6.00;;;4.43;;
8213;SDS011;4148;47.974;7.824;2022-09-21T08:57:49;8.60;;;4.93;;
8213;SDS011;4148;47.974;7.824;2022-09-21T09:00:17;5.63;;;3.90;;
8213;SDS011;4148;47.974;7.824;2022-09-21T09:02:52;6.00;;;4.40;;
8213;SDS011;4148;47.974;7.824;2022-09-21T09:05:37;11.60;;;5.33;;
8213;SDS011;4148;47.974;7.824;2022-09-21T09:08:19;5.03;;;4.20;;
8213;SDS011;4148;47.974;7.824;2022-09-21T09:11:12;5.70;;;4.30;;
8213;SDS011;4148;47.974;7.824;2022-09-21T09:13:57;5.83;;;3.70;;
8213;SDS011;4148;47.974;7.824;2022-09-21T09:16:40;7.60;;;4.27;;
8213;SDS011;4148;47.974;7.824;2022-09-21T09:19:18;5.47;;;4.23;;
8213;SDS011;4148;47.974;7.824;2022-09-21T09:21:50;7.57;;;4.40;;
8213;SDS011;4148;47.974;7.824;2022-09-21T09:24:26;6.70;;;3.97;;
8213;SDS011;4148;47.974;7.824;2022-09-21T09:27:02;4.20;;;3.80;;
8213;SDS011;4148;47.974;7.824;2022-09-21T09:29:42;7.40;;;5.20;;
8213;SDS011;4148;47.974;7.824;2022-09-21T09:32:14;7.13;;;4.20;;
8213;SDS011;4148;47.974;7.824;2022-09-21T09:34:44;3.93;;;3.47;;
8213;SDS011;4148;47.974;7.824;2022-09-21T09:37:20;5.47;;;3.73;;
8213;SDS011;4148;47.974;7.824;2022-09-21T09:39:56;10.03;;;3.77;;
8213;SDS011;4148;47.974;7.824;2022-09-21T09:42:29;8.10;;;4.00;;
8213;SDS011;4148;47.974;7.824;2022-09-21T09:48:12;5.47;;;3.57;;
8213;SDS011;4148;47.974;7.824;2022-09-21T09:50:49;6.50;;;3.20;;
8213;SDS011;4148;47.974;7.824;2022-09-21T09:53:18;5.53;;;3.10;;
8213;SDS011;4148;47.974;7.824;2022-09-21T09:55:50;4.07;;;3.53;;
8213;SDS011;4148;47.974;7.824;2022-09-21T09:58:20;5.47;;;3.13;;
8213;SDS011;4148;47.974;7.824;2022-09-21T10:00:51;3.90;;;3.50;;
8213;SDS011;4148;47.974;7.824;2022-09-21T10:03:20;8.70;;;3.30;;
8213;SDS011;4148;47.974;7.824;2022-09-21T10:05:49;3.60;;;3.07;;
8213;SDS011;4148;47.974;7.824;2022-09-21T10:08:37;4.60;;;3.10;;
8213;SDS011;4148;47.974;7.824;2022-09-21T10:11:10;5.93;;;3.30;;
8213;SDS011;4148;47.974;7.824;2022-09-21T10:13:40;7.43;;;2.60;;
8213;SDS011;4148;47.974;7.824;2022-09-21T10:16:10;5.17;;;3.10;;
8213;SDS011;4148;47.974;7.824;2022-09-21T10:18:43;4.97;;;2.87;;
8213;SDS011;4148;47.974;7.824;2022-09-21T10:21:16;4.20;;;2.63;;
8213;SDS011;4148;47.974;7.824;2022-09-21T10:23:48;5.57;;;2.53;;
8213;SDS011;4148;47.974;7.824;2022-09-21T10:26:19;4.10;;;2.60;;
8213;SDS011;4148;47.974;7.824;2022-09-21T10:28:55;3.97;;;2.60;;
8213;SDS011;4148;47.974;7.824;2022-09-21T10:31:24;6.03;;;2.20;;
8213;SDS011;4148;47.974;7.824;2022-09-21T10:34:03;4.73;;;2.93;;
8213;SDS011;4148;47.974;7.824;2022-09-21T10:36:34;3.23;;;2.40;;
8213;SDS011;4148;47.974;7.824;2022-09-21T10:39:20;5.80;;;2.97;;
8213;SDS011;4148;47.974;7.824;2022-09-21T10:41:51;4.63;;;2.50;;
8213;SDS011;4148;47.974;7.824;2022-09-21T10:44:25;2.57;;;2.30;;
8213;SDS011;4148;47.974;7.824;2022-09-21T10:46:55;3.13;;;2.53;;
8213;SDS011;4148;47.974;7.824;2022-09-21T10:49:28;4.63;;;2.40;;
8213;SDS011;4148;47.974;7.824;2022-09-21T10:51:57;3.83;;;1.97;;
8213;SDS011;4148;47.974;7.824;2022-09-21T10:54:26;3.60;;;2.00;;
8213;SDS011;4148;47.974;7.824;2022-09-21T10:56:59;4.23;;;1.97;;
8213;SDS011;4148;47.974;7.824;2022-09-21T10:59:30;4.47;;;2.33;;
8213;SDS011;4148;47.974;7.824;2022-09-21T11:01:59;2.77;;;1.80;;
8213;SDS011;4148;47.974;7.824;2022-09-21T11:04:37;3.57;;;1.93;;
8213;SDS011;4148;47.974;7.824;2022-09-21T11:07:09;2.60;;;1.93;;
8213;SDS011;4148;47.974;7.824;2022-09-21T11:09:44;2.27;;;1.90;;
8213;SDS011;4148;47.974;7.824;2022-09-21T11:12:30;2.73;;;2.03;;
8213;SDS011;4148;47.974;7.824;2022-09-21T11:15:10;3.10;;;1.53;;
8213;SDS011;4148;47.974;7.824;2022-09-21T11:17:44;5.43;;;1.87;;
8213;SDS011;4148;47.974;7.824;2022-09-21T11:20:20;2.97;;;1.53;;
8213;SDS011;4148;47.974;7.824;2022-09-21T11:22:57;2.90;;;1.53;;
8213;SDS011;4148;47.974;7.824;2022-09-21T11:25:30;2.60;;;1.63;;
8213;SDS011;4148;47.974;7.824;2022-09-21T11:28:05;2.53;;;1.67;;
8213;SDS011;4148;47.974;7.824;2022-09-21T11:30:46;2.17;;;1.60;;
8213;SDS011;4148;47.974;7.824;2022-09-21T11:33:31;2.90;;;1.50;;
8213;SDS011;4148;47.974;7.824;2022-09-21T11:36:16;2.17;;;1.50;;
8213;SDS011;4148;47.974;7.824;2022-09-21T11:38:52;3.53;;;1.87;;
8213;SDS011;4148;47.974;7.824;2022-09-21T11:41:45;2.47;;;1.33;;
8213;SDS011;4148;47.974;7.824;2022-09-21T11:44:26;4.47;;;1.47;;
8213;SDS011;4148;47.974;7.824;2022-09-21T11:47:10;1.77;;;1.40;;
8213;SDS011;4148;47.974;7.824;2022-09-21T11:49:59;3.47;;;1.70;;
8213;SDS011;4148;47.974;7.824;2022-09-21T11:52:58;4.07;;;1.80;;
8213;SDS011;4148;47.974;7.824;2022-09-21T11:55:41;2.03;;;1.43;;
8213;SDS011;4148;47.974;7.824;2022-09-21T11:58:30;2.17;;;1.77;;
8213;SDS011;4148;47.974;7.824;2022-09-21T12:01:08;3.00;;;1.70;;
8213;SDS011;4148;47.974;7.824;2022-09-21T12:03:44;1.83;;;1.40;;
8213;SDS011;4148;47.974;7.824;2022-09-21T12:06:29;1.90;;;1.50;;
8213;SDS011;4148;47.974;7.824;2022-09-21T12:09:13;2.30;;;1.50;;
8213;SDS011;4148;47.974;7.824;2022-09-21T12:11:52;2.87;;;1.50;;
8213;SDS011;4148;47.974;7.824;2022-09-21T12:14:28;2.33;;;1.33;;
8213;SDS011;4148;47.974;7.824;2022-09-21T12:17:03;2.77;;;1.50;;
8213;SDS011;4148;47.974;7.824;2022-09-21T12:19:40;2.53;;;1.30;;
8213;SDS011;4148;47.974;7.824;2022-09-21T12:22:15;2.10;;;1.40;;
8213;SDS011;4148;47.974;7.824;2022-09-21T12:24:46;1.70;;;1.40;;
8213;SDS011;4148;47.974;7.824;2022-09-21T12:27:25;1.60;;;1.20;;
8213;SDS011;4148;47.974;7.824;2022-09-21T12:29:58;2.40;;;1.30;;
8213;SDS011;4148;47.974;7.824;2022-09-21T12:32:32;2.77;;;1.20;;
8213;SDS011;4148;47.974;7.824;2022-09-21T12:35:12;2.00;;;1.20;;
8213;SDS011;4148;47.974;7.824;2022-09-21T12:37:44;2.00;;;1.03;;
8213;SDS011;4148;47.974;7.824;2022-09-21T12:40:16;1.83;;;1.27;;
8213;SDS011;4148;47.974;7.824;2022-09-21T12:42:54;2.90;;;1.23;;
8213;SDS011;4148;47.974;7.824;2022-09-21T12:45:28;3.40;;;1.43;;
8213;SDS011;4148;47.974;7.824;2022-09-21T12:48:03;4.77;;;1.37;;
8213;SDS011;4148;47.974;7.824;2022-09-21T12:50:39;2.10;;;1.20;;
8213;SDS011;4148;47.974;7.824;2022-09-21T12:53:13;2.20;;;1.33;;
8213;SDS011;4148;47.974;7.824;2022-09-21T12:55:47;1.70;;;1.10;;
8213;SDS011;4148;47.974;7.824;2022-09-21T12:58:25;2.50;;;1.40;;
8213;SDS011;4148;47.974;7.824;2022-09-21T13:01:07;2.83;;;1.10;;
8213;SDS011;4148;47.974;7.824;2022-09-21T13:03:50;2.27;;;1.20;;
8213;SDS011;4148;47.974;7.824;2022-09-21T13:06:40;2.33;;;1.80;;
8213;SDS011;4148;47.974;7.824;2022-09-21T13:09:33;1.67;;;1.20;;
8213;SDS011;4148;47.974;7.824;2022-09-21T13:12:07;1.53;;;1.23;;
8213;SDS011;4148;47.974;7.824;2022-09-21T13:14:42;1.70;;;1.20;;
8213;SDS011;4148;47.974;7.824;2022-09-21T13:17:18;3.00;;;1.17;;
8213;SDS011;4148;47.974;7.824;2022-09-21T13:19:56;1.80;;;1.20;;
8213;SDS011;4148;47.974;7.824;2022-09-21T13:22:28;1.67;;;1.00;;
8213;SDS011;4148;47.974;7.824;2022-09-21T13:25:03;2.10;;;1.10;;
8213;SDS011;4148;47.974;7.824;2022-09-21T13:30:35;1.70;;;1.10;;
8213;SDS011;4148;47.974;7.824;2022-09-21T13:39:16;2.03;;;1.23;;
8213;SDS011;4148;47.974;7.824;2022-09-21T13:41:45;1.90;;;1.30;;
8213;SDS011;4148;47.974;7.824;2022-09-21T13:44:37;2.60;;;1.00;;
8213;SDS011;4148;47.974;7.824;2022-09-21T13:47:07;2.87;;;1.10;;
8213;SDS011;4148;47.974;7.824;2022-09-21T13:49:39;2.43;;;1.10;;
8213;SDS011;4148;47.974;7.824;2022-09-21T13:52:22;2.87;;;1.37;;
8213;SDS011;4148;47.974;7.824;2022-09-21T13:54:54;3.10;;;1.20;;
8213;SDS011;4148;47.974;7.824;2022-09-21T13:57:26;2.50;;;1.17;;
8213;SDS011;4148;47.974;7.824;2022-09-21T14:00:02;2.33;;;1.20;;
8213;SDS011;4148;47.974;7.824;2022-09-21T14:03:01;1.70;;;1.10;;
8213;SDS011;4148;47.974;7.824;2022-09-21T14:05:33;1.73;;;1.20;;
8213;SDS011;4148;47.974;7.824;2022-09-21T14:08:19;1.60;;;1.00;;
8213;SDS011;4148;47.974;7.824;2022-09-21T14:10:52;1.60;;;1.10;;
8213;SDS011;4148;47.974;7.824;2022-09-21T14:13:23;1.80;;;1.20;;
8213;SDS011;4148;47.974;7.824;2022-09-21T14:18:59;1.30;;;0.90;;
8213;SDS011;4148;47.974;7.824;2022-09-21T14:21:28;1.37;;;1.00;;
8213;SDS011;4148;47.974;7.824;2022-09-21T14:24:18;2.57;;;1.20;;
8213;SDS011;4148;47.974;7.824;2022-09-21T14:26:49;2.53;;;1.13;;
8213;SDS011;4148;47.974;7.824;2022-09-21T14:29:22;3.10;;;1.30;;
8213;SDS011;4148;47.974;7.824;2022-09-21T14:31:53;1.50;;;1.03;;
8213;SDS011;4148;47.974;7.824;2022-09-21T14:34:25;1.63;;;1.00;;
8213;SDS011;4148;47.974;7.824;2022-09-21T14:36:57;4.70;;;1.30;;
8213;SDS011;4148;47.974;7.824;2022-09-21T14:39:31;2.37;;;1.20;;
8213;SDS011;4148;47.974;7.824;2022-09-21T14:42:02;3.23;;;1.27;;
8213;SDS011;4148;47.974;7.824;2022-09-21T14:44:37;2.53;;;1.10;;
8213;SDS011;4148;47.974;7.824;2022-09-21T14:47:15;1.70;;;1.20;;
8213;SDS011;4148;47.974;7.824;2022-09-21T14:49:58;1.60;;;0.93;;
8213;SDS011;4148;47.974;7.824;2022-09-21T14:52:43;2.13;;;1.27;;
8213;SDS011;4148;47.974;7.824;2022-09-21T14:55:24;3.30;;;1.20;;
8213;SDS011;4148;47.974;7.824;2022-09-21T14:58:10;2.43;;;1.20;;
8213;SDS011;4148;47.974;7.824;2022-09-21T15:00:50;2.30;;;1.10;;
8213;SDS011;4148;47.974;7.824;2022-09-21T15:03:26;1.90;;;1.20;;
8213;SDS011;4148;47.974;7.824;2022-09-21T15:06:10;3.50;;;1.30;;
8213;SDS011;4148;47.974;7.824;2022-09-21T15:09:05;3.30;;;0.90;;
8213;SDS011;4148;47.974;7.824;2022-09-21T15:12:09;4.90;;;1.25;;
8213;SDS011;4148;47.974;7.824;2022-09-21T15:14:43;3.00;;;1.30;;
8213;SDS011;4148;47.974;7.824;2022-09-21T15:17:17;2.30;;;1.20;;
8213;SDS011;4148;47.974;7.824;2022-09-21T15:19:50;2.47;;;1.17;;
8213;SDS011;4148;47.974;7.824;2022-09-21T15:22:24;1.60;;;1.20;;
8213;SDS011;4148;47.974;7.824;2022-09-21T15:24:53;2.03;;;1.20;;
8213;SDS011;4148;47.974;7.824;2022-09-21T15:27:24;1.87;;;1.00;;
8213;SDS011;4148;47.974;7.824;2022-09-21T15:29:59;2.07;;;1.00;;
8213;SDS011;4148;47.974;7.824;2022-09-21T15:32:31;2.83;;;1.10;;
8213;SDS011;4148;47.974;7.824;2022-09-21T15:35:03;1.83;;;1.07;;
8213;SDS011;4148;47.974;7.824;2022-09-21T15:37:33;2.07;;;0.90;;
8213;SDS011;4148;47.974;7.824;2022-09-21T15:40:05;1.73;;;0.80;;
8213;SDS011;4148;47.974;7.824;2022-09-21T15:42:56;1.50;;;1.10;;
8213;SDS011;4148;47.974;7.824;2022-09-21T15:45:26;1.97;;;1.20;;
8213;SDS011;4148;47.974;7.824;2022-09-21T15:47:59;1.90;;;1.10;;
8213;SDS011;4148;47.974;7.824;2022-09-21T15:50:27;1.60;;;1.00;;
8213;SDS011;4148;47.974;7.824;2022-09-21T15:52:56;3.20;;;1.00;;
8213;SDS011;4148;47.974;7.824;2022-09-21T15:55:30;1.97;;;0.97;;
8213;SDS011;4148;47.974;7.824;2022-09-21T15:58:00;3.20;;;1.20;;
8213;SDS011;4148;47.974;7.824;2022-09-21T16:00:30;1.93;;;1.03;;
8213;SDS011;4148;47.974;7.824;2022-09-21T16:03:03;1.90;;;1.30;;
8213;SDS011;4148;47.974;7.824;2022-09-21T16:05:40;2.00;;;0.97;;
8213;SDS011;4148;47.974;7.824;2022-09-21T16:08:20;1.80;;;1.20;;
8213;SDS011;4148;47.974;7.824;2022-09-21T16:14:03;5.63;;;2.60;;